createdAt,value
2022-11-04T00:03:28.667Z,9.90
2022-11-04T00:08:32.681Z,10.50
2022-11-04T00:13:36.298Z,11.80
2022-11-04T00:18:43.135Z,10.00
2022-11-04T00:24:05.449Z,9.60
2022-11-04T00:29:09.072Z,11.10
2022-11-04T00:34:12.795Z,10.00
2022-11-04T00:39:16.521Z,9.40
2022-11-04T00:44:20.097Z,8.00
2022-11-04T00:49:24.383Z,8.50
2022-11-04T00:54:34.653Z,8.70
2022-11-04T00:59:40.316Z,10.40
2022-11-04T01:04:44.264Z,9.20
2022-11-04T01:09:50.206Z,7.40
2022-11-04T01:14:54.263Z,10.20
2022-11-04T01:19:57.990Z,10.40
2022-11-04T01:25:01.919Z,7.70
2022-11-04T01:30:06.259Z,9.50
2022-11-04T01:35:11.288Z,8.00
2022-11-04T01:40:14.956Z,8.50
2022-11-04T01:45:21.978Z,9.40
2022-11-04T01:50:28.734Z,8.50
2022-11-04T01:55:35.462Z,6.70
2022-11-04T02:00:40.663Z,9.60
2022-11-04T02:05:44.923Z,7.90
2022-11-04T02:10:54.666Z,8.00
2022-11-04T02:16:19.698Z,8.90
2022-11-04T02:21:40.007Z,6.20
2022-11-04T02:27:02.046Z,7.80
2022-11-04T02:32:33.301Z,7.40
2022-11-04T02:42:55.901Z,7.50
2022-11-04T02:48:32.681Z,7.50
2022-11-04T02:53:47.963Z,6.90
2022-11-04T02:58:59.838Z,7.30
2022-11-04T03:04:10.456Z,8.40
2022-11-04T03:09:15.921Z,5.70
2022-11-04T03:14:25.378Z,6.50
2022-11-04T03:19:42.917Z,6.20
2022-11-04T03:24:48.386Z,7.10
2022-11-04T03:30:24.101Z,6.70
2022-11-04T03:35:29.212Z,7.30
2022-11-04T03:40:33.033Z,7.20
2022-11-04T03:45:37.878Z,5.90
2022-11-04T03:50:49.058Z,6.00
2022-11-04T04:01:40.599Z,7.90
2022-11-04T04:06:46.448Z,7.40
2022-11-04T04:12:07.011Z,5.40
2022-11-04T04:17:30.692Z,6.60
2022-11-04T04:22:41.016Z,5.90
2022-11-04T04:27:47.694Z,6.30
2022-11-04T04:32:58.133Z,5.80
2022-11-04T04:38:25.506Z,7.20
2022-11-04T04:43:48.057Z,6.60
2022-11-04T04:48:52.012Z,5.70
2022-11-04T04:53:55.715Z,5.00
2022-11-04T04:58:59.439Z,5.20
2022-11-04T05:04:03.061Z,5.70
2022-11-04T05:09:09.142Z,7.00
2022-11-04T05:14:13.278Z,6.40
2022-11-04T05:19:16.801Z,6.30
2022-11-04T05:24:20.528Z,5.50
2022-11-04T05:29:24.143Z,5.30
2022-11-04T05:34:27.870Z,5.00
2022-11-04T05:39:31.494Z,6.10
2022-11-04T05:44:35.223Z,5.40
2022-11-04T05:49:39.149Z,5.80
2022-11-04T05:54:42.885Z,5.20
2022-11-04T05:59:46.602Z,6.70
2022-11-04T06:04:50.632Z,6.80
2022-11-04T06:09:54.356Z,5.30
2022-11-04T06:15:00.845Z,6.20
2022-11-04T06:20:06.743Z,5.70
2022-11-04T06:25:12.374Z,5.60
2022-11-04T06:30:16.024Z,4.80
2022-11-04T06:35:19.741Z,4.30
2022-11-04T06:40:28.377Z,7.10
2022-11-04T06:45:35.796Z,7.00
2022-11-04T06:50:39.716Z,6.90
2022-11-04T06:55:44.499Z,8.70
2022-11-04T07:00:53.771Z,7.50
2022-11-04T07:05:57.446Z,7.80
2022-11-04T07:11:02.089Z,6.90
2022-11-04T07:16:06.934Z,6.80
2022-11-04T07:21:11.482Z,10.00
2022-11-04T07:26:15.113Z,8.70
2022-11-04T07:31:22.181Z,14.30
2022-11-04T07:36:27.165Z,12.50
2022-11-04T07:41:30.991Z,9.70
2022-11-04T07:46:34.717Z,13.10
2022-11-04T07:51:38.360Z,12.10
2022-11-04T07:56:42.184Z,8.60
2022-11-04T08:01:45.864Z,11.80
2022-11-04T08:06:49.623Z,13.20
2022-11-04T08:11:53.343Z,8.20
2022-11-04T08:16:57.069Z,7.80
2022-11-04T08:22:00.705Z,9.80
2022-11-04T08:27:10.458Z,10.80
2022-11-04T08:32:14.081Z,9.20
2022-11-04T08:37:17.906Z,7.80
2022-11-04T08:42:21.535Z,9.90
2022-11-04T08:47:25.421Z,7.10
2022-11-04T08:52:29.205Z,8.90
2022-11-04T08:57:33.013Z,9.00
2022-11-04T09:02:36.840Z,12.60
2022-11-04T09:07:40.875Z,8.40
2022-11-04T09:12:45.825Z,6.90
2022-11-04T09:17:50.680Z,7.50
2022-11-04T09:22:56.143Z,9.20
2022-11-04T09:28:02.734Z,10.30
2022-11-04T09:33:07.077Z,11.60
2022-11-04T09:38:11.420Z,16.40
2022-11-04T09:43:43.178Z,11.80
2022-11-04T09:48:53.916Z,14.10
2022-11-04T09:54:08.027Z,11.10
2022-11-04T09:59:18.233Z,8.30
2022-11-04T10:04:41.475Z,10.10
2022-11-04T10:09:56.972Z,11.70
2022-11-04T10:15:25.149Z,11.30
2022-11-04T10:20:46.277Z,10.20
2022-11-04T10:31:11.495Z,10.40
2022-11-04T10:36:19.278Z,21.20
2022-11-04T10:41:38.557Z,10.00
2022-11-04T10:46:54.322Z,10.00
2022-11-04T10:51:58.357Z,10.70
2022-11-04T10:57:04.106Z,15.40
2022-11-04T11:02:08.374Z,9.60
2022-11-04T11:07:18.510Z,10.90
2022-11-04T11:12:50.466Z,10.00
2022-11-04T11:18:01.518Z,10.30
2022-11-04T11:23:10.312Z,11.00
2022-11-04T11:28:26.327Z,8.00
2022-11-04T11:33:33.271Z,10.60
2022-11-04T11:38:37.385Z,17.10
2022-11-04T11:43:47.756Z,8.10
2022-11-04T11:49:01.397Z,10.20
2022-11-04T12:11:06.730Z,11.30
2022-11-04T12:16:23.426Z,9.60
2022-11-04T12:21:35.361Z,9.80
2022-11-04T12:27:14.084Z,8.60
2022-11-04T12:32:46.883Z,12.10
2022-11-04T12:37:56.944Z,9.30
2022-11-04T12:43:17.123Z,9.00
2022-11-04T12:48:50.811Z,10.60
2022-11-04T12:54:35.592Z,8.60
2022-11-04T12:59:56.480Z,10.30
2022-11-04T13:05:19.996Z,9.50
2022-11-04T13:10:53.411Z,18.70
2022-11-04T13:16:02.922Z,7.60
2022-11-04T13:21:28.286Z,10.50
2022-11-04T13:26:36.516Z,10.10
2022-11-04T13:31:52.417Z,9.00
2022-11-04T13:37:34.824Z,9.30
2022-11-04T13:43:22.760Z,9.80
2022-11-04T13:48:33.019Z,8.90
2022-11-04T13:53:52.324Z,8.10
2022-11-04T13:59:03.322Z,12.90
2022-11-04T14:09:39.831Z,11.40
2022-11-04T14:14:53.099Z,10.20
2022-11-04T14:20:09.272Z,18.90
2022-11-04T14:25:32.257Z,17.50
2022-11-04T14:30:56.441Z,13.70
2022-11-04T14:36:21.246Z,16.20
2022-11-04T14:41:56.887Z,11.90
2022-11-04T14:47:06.783Z,16.80
2022-11-04T14:52:35.960Z,18.40
2022-11-04T14:57:55.343Z,16.60
2022-11-04T15:03:10.463Z,11.80
2022-11-04T15:08:36.460Z,16.10
2022-11-04T15:14:05.228Z,17.10
2022-11-04T15:19:13.896Z,20.20
2022-11-04T15:24:21.206Z,17.10
2022-11-04T15:29:31.904Z,15.90
2022-11-04T15:34:40.528Z,19.90
2022-11-04T15:39:46.748Z,25.20
2022-11-04T15:44:56.308Z,24.60
2022-11-04T15:50:29.067Z,27.90
2022-11-04T15:55:51.329Z,17.70
2022-11-04T16:01:06.904Z,18.50
2022-11-04T16:06:13.605Z,17.60
2022-11-04T16:11:20.638Z,19.10
2022-11-04T16:16:28.511Z,19.20
2022-11-04T16:21:45.241Z,21.20
2022-11-04T16:26:57.265Z,32.30
2022-11-04T16:32:34.883Z,25.50
2022-11-04T16:38:07.122Z,26.60
2022-11-04T16:43:12.863Z,22.70
2022-11-04T16:48:35.477Z,21.00
2022-11-04T16:53:54.945Z,20.40
2022-11-04T16:59:00.912Z,19.10
2022-11-04T17:04:11.310Z,23.90
2022-11-04T17:09:32.830Z,21.40
2022-11-04T17:15:12.103Z,21.60
2022-11-04T17:20:52.600Z,19.00
2022-11-04T17:26:04.704Z,21.80
2022-11-04T17:31:28.521Z,19.40
2022-11-04T17:36:40.070Z,19.10
2022-11-04T17:42:03.912Z,21.50
2022-11-04T17:47:08.861Z,22.80
2022-11-04T17:52:12.383Z,21.80
2022-11-04T17:57:19.387Z,20.50
2022-11-04T18:02:23.341Z,22.70
2022-11-04T18:07:32.055Z,27.20
2022-11-04T18:12:37.322Z,26.70
2022-11-04T18:17:46.566Z,23.50
2022-11-04T18:22:56.943Z,27.30
2022-11-04T18:28:03.736Z,27.40
2022-11-04T18:33:13.730Z,23.40
2022-11-04T18:38:23.121Z,26.20
2022-11-04T18:43:30.366Z,26.80
2022-11-04T18:48:37.439Z,22.30
2022-11-04T18:53:44.162Z,18.80
2022-11-04T18:58:49.948Z,24.20
2022-11-04T19:03:57.456Z,21.30
2022-11-04T19:09:32.469Z,24.00
2022-11-04T19:14:35.264Z,22.90
2022-11-04T19:19:41.761Z,20.20
2022-11-04T19:24:46.424Z,20.80
2022-11-04T19:29:52.003Z,19.40
2022-11-04T19:35:13.857Z,27.80
2022-11-04T19:40:31.716Z,23.40
2022-11-04T19:45:40.316Z,23.30
2022-11-04T19:50:50.722Z,25.70
2022-11-04T20:01:32.606Z,30.40
2022-11-04T20:06:38.611Z,24.10
2022-11-04T20:12:04.665Z,17.30
2022-11-04T20:17:11.539Z,22.00
2022-11-04T20:22:17.208Z,23.10
2022-11-04T20:27:24.219Z,20.20
2022-11-04T20:32:38.796Z,25.00
2022-11-04T20:37:50.598Z,21.40
2022-11-04T20:42:57.503Z,22.60
2022-11-04T20:48:01.124Z,19.60
2022-11-04T20:53:20.773Z,23.90
2022-11-04T20:58:33.567Z,18.70
2022-11-04T21:03:38.814Z,17.20
2022-11-04T21:08:50.913Z,17.50
2022-11-04T21:13:56.706Z,18.20
2022-11-04T21:19:02.432Z,19.20
2022-11-04T21:24:13.819Z,13.30
2022-11-04T21:29:23.232Z,14.70
2022-11-04T21:34:29.084Z,16.30
2022-11-04T21:39:50.114Z,16.80
2022-11-04T21:44:59.596Z,18.70
2022-11-04T21:50:17.861Z,20.70
2022-11-04T21:55:32.771Z,17.00
2022-11-04T22:00:56.253Z,17.10
2022-11-04T22:06:10.474Z,14.90
2022-11-04T22:11:20.616Z,13.70
2022-11-04T22:16:28.048Z,14.80
2022-11-04T22:21:32.566Z,15.10
2022-11-04T22:26:38.443Z,17.80
2022-11-04T22:31:45.236Z,14.90
2022-11-04T22:42:40.268Z,15.00
2022-11-04T22:47:45.367Z,16.80
2022-11-04T22:53:02.167Z,14.60
2022-11-04T22:58:15.011Z,15.30
2022-11-04T23:14:31.447Z,12.80
2022-11-04T23:19:41.468Z,12.90
2022-11-04T23:25:14.214Z,11.20
2022-11-04T23:30:40.263Z,13.60
2022-11-04T23:36:10.007Z,13.30
2022-11-04T23:41:32.626Z,11.20
2022-11-04T23:46:54.989Z,13.30
2022-11-04T23:52:18.357Z,13.30
2022-11-04T23:57:41.717Z,11.50
